Airfield :
LOGIN :

Register | Disclaimer

   EN    FR    IT 

 










Legend :    VFR   Marginal VFR   IFR   Intensive IFR   Very Intensive IFR
Visi :
Ceiling :
>= 8 km
>= 3000ft
5 to 8 km
1000 to 3000 ft
1500m to 5 km
500 to 1000 ft
800 to 1500m
200 to 500 ft
< 800m
< 200 ft
Symbols :   Thunderstorms  Fog  Heavy snow  Heavy precipitations  Wind > 20 kt
SIGMETs :     Misc.  Thunderstorms  Icing  Turbulence  Mountain Waves  Volcanic Ashes






- Airport Elevation : 87 ft
- IATA code : FSC


LFKF - Figari

CURRENT METAR :
  • 261930Z AUTO 07007KT 020V110 9999 FEW020 OVC078 14/11 Q1021 NOSIG

EXPIRED METARs :
  • 261900Z AUTO 07006KT 040V110 9999 SCT021 SCT028 OVC076 14/11 Q1021 NOSIG
  • 261830Z AUTO 07009KT 040V100 9999 BKN022 BKN072 14/11 Q1021 NOSIG
  • 261800Z AUTO 06010KT 9999 BKN023 BKN072 14/11 Q1021 NOSIG

TAF TAF LFKF
Valid from the 26 at 15:00 until the 27 at 15:00 UTC


261400Z 2615/2715 05010KT 9999 NSC
BECMG 2710/2713 06015KT 9999 SCT020 OVC033
TEMPO 2710/2715 RA



MET'MAP, your aeronautical weather chart ! - Copyright ORBIFLY December 2007 - Disclaimer

ORBIFLY MET'MAP TEAM :

Programming & Development : Alexandra Zaïnal
Concept & original design : Baudouin d'Aumeries
Assistance for programming : Marc-Olivier Méhu
Technical & hardware support : Manuel Goepfert

Contact : metmap@orbifly.com




SOURCES & CREDITS :

   NOAA